• Terra Properties Inc
  • Software Answer


Nearby METAR Reports


KEDC - Austin Exec, Texas, USA
Distance from station: SW 16mi, 25km
Updated: Thu, 18-Jan-2018 1:35pm CST
Overcast
Overcast
 Wind from SSW
Wind: SSW 3 mph , 6 km/h
Temperature: 39°F , 4°C
Dew Point: 14°F , -10°C
Humidity: 36%
Barometer: 30.45 inHg , 1031.2 hPa
Clouds: Overcast
Visibility: 10 miles , 16 km
Cloud details: Overcast 5000 ft
2018/01/18 19:35 KEDC 181935Z AUTO 21003KT 10SM OVC050 04/M10 A3045 RMK AO2
KGTU - Georgetown, Texas, USA
Distance from station: WNW 17mi, 28km
Updated: Thu, 18-Jan-2018 12:56pm CST
Overcast
Overcast
 Wind from SSE
Wind: SSE 7 mph , 11 km/h
Temperature: 36°F , 2°C
Wind Chill: 30°F , -1°C
Dew Point: 14°F , -10°C
Humidity: 41%
Barometer: 30.47 inHg , 1031.8 hPa
Clouds: Overcast
Visibility: 10 miles , 16 km
Cloud details: Overcast 6000 ft
2018/01/18 18:56 KGTU 181856Z 15006KT 10SM OVC060 02/M10 A3047 RMK AO2 SLP329 T00221100 FZRANO
 
KATT - Austin/Mabry, Texas, USA
Distance from station: SW 28mi, 45km
Updated: Thu, 18-Jan-2018 12:51pm CST
Overcast
Overcast
 Wind from varies
Wind: varies 5 mph , 7 km/h
Temperature: 39°F , 4°C
Wind Chill: 35°F , 2°C
Dew Point: 16°F , -9°C
Humidity: 39%
Barometer: 30.48 inHg , 1032.2 hPa
Clouds: Overcast
Visibility: 10 miles , 16 km
Cloud details: Overcast 5500 ft
2018/01/18 18:51 KATT 181851Z AUTO VRB04KT 10SM OVC055 04/M09 A3048 RMK AO2 SLP331 T00391094
KAUS - Austin, Texas, USA
Distance from station: SSW 32mi, 51km
Updated: Thu, 18-Jan-2018 12:53pm CST
Overcast
Overcast
 Wind from E
Wind: E 6 mph , 9 km/h
Temperature: 39°F , 4°C
Wind Chill: 35°F , 2°C
Dew Point: 16°F , -9°C
Humidity: 39%
Barometer: 30.47 inHg , 1031.8 hPa
Clouds: Overcast
Visibility: 10 miles , 16 km
Cloud details: Overcast 5500 ft
2018/01/18 18:53 KAUS 181853Z 10005KT 10SM OVC055 04/M09 A3047 RMK AO2 SLP329 T00391089
 
KRYW - Lago Vista, Texas, USA
Distance from station: W 33mi, 54km
Updated: Thu, 18-Jan-2018 1:35pm CST
Overcast
Overcast
 
Temperature: 41°F , 5°C
Dew Point: 18°F , -8°C
Humidity: 39%
Barometer: 30.40 inHg , 1029.5 hPa
Clouds: Overcast
Visibility: 10 miles , 16 km
Cloud details: Overcast 4600 ft
2018/01/18 19:35 KRYW 181935Z AUTO 10SM OVC046 05/M08 A3040 RMK AO2 T00501083
KILE - Killeen Muni, Texas, USA
Distance from station: NNW 37mi, 59km
Updated: Thu, 18-Jan-2018 12:56pm CST
Overcast
Overcast
 Wind from SE
Wind: SE 6 mph , 9 km/h
Temperature: 37°F , 3°C
Wind Chill: 32°F , 0°C
Dew Point: 14°F , -10°C
Humidity: 38%
Barometer: 30.45 inHg , 1031.2 hPa
Clouds: Overcast
Visibility: 10 miles , 16 km
Cloud details: Overcast 5500 ft
2018/01/18 18:56 KILE 181856Z AUTO 13005KT 10SM OVC055 03/M10 A3045 RMK AO2 SLP333 T00331100
 
KTPL - Temple/Miller, Texas, USA
Distance from station: N 38mi, 61km
Updated: Thu, 18-Jan-2018 12:51pm CST
Overcast
Overcast
 Wind from S
Wind: S 9 mph , 15 km/h
Temperature: 37°F , 3°C
Wind Chill: 30°F , -1°C
Dew Point: 12°F , -11°C
Humidity: 35%
Barometer: 30.47 inHg , 1031.8 hPa
Clouds: Overcast
Visibility: 10 miles , 16 km
Cloud details: Overcast 6000 ft
2018/01/18 18:51 KTPL 181851Z AUTO 17008KT 10SM OVC060 03/M11 A3047 RMK AO2 SLP335 T00281111
KGYB - Giddings-Lee, Texas, USA
Distance from station: SE 39mi, 62km
Updated: Thu, 18-Jan-2018 1:35pm CST
Overcast
Overcast
 Wind from calm
Wind: Calm
Temperature: 37°F , 3°C
Dew Point: 16°F , -9°C
Humidity: 41%
Barometer: 30.47 inHg , 1031.8 hPa
Clouds: Overcast
Visibility: 10 miles , 16 km
Cloud details: Mostly Cloudy 5500 ft
Overcast 7000 ft
2018/01/18 19:35 KGYB 181935Z AUTO 00000KT 10SM BKN055 OVC070 03/M09 A3047 RMK AO2 T00281092
 
KGRK - Gray/Ft Hood, Texas, USA
Distance from station: NW 42mi, 67km
Updated: Thu, 18-Jan-2018 12:58pm CST
Overcast
Overcast
 Wind from SSE
Wind: SSE 8 mph , 13 km/h
Temperature: 39°F , 4°C
Wind Chill: 33°F , 1°C
Dew Point: 14°F , -10°C
Humidity: 36%
Barometer: 30.42 inHg , 1030.1 hPa
Clouds: Overcast
Visibility: 10 miles , 16 km
Cloud details: Partly Cloudy 4900 ft
Overcast 6000 ft
2018/01/18 18:58 KGRK 181858Z AUTO 15007KT 10SM SCT049 OVC060 04/M10 A3042 RMK AO2 SLP312 T00351103
KHLR - Ft Hood/Killeen, Texas, USA
Distance from station: NNW 42mi, 67km
Updated: Thu, 18-Jan-2018 12:58pm CST
Overcast
Overcast
 Wind from S
Wind: S 7 mph , 11 km/h
Temperature: 37°F , 3°C
Wind Chill: 32°F , 0°C
Dew Point: 14°F , -10°C
Humidity: 38%
Barometer: 30.40 inHg , 1029.5 hPa
Clouds: Overcast
Visibility: 10 miles , 16 km
Cloud details: Overcast 6000 ft
2018/01/18 18:58 KHLR 181858Z AUTO 17006KT 10SM OVC060 03/M10 A3040 RMK AO2 SLP302 T00341105
 
KRWV - Caldwell, Texas, USA
Distance from station: E 43mi, 69km
Updated: Thu, 18-Jan-2018 1:35pm CST
Overcast
Overcast
 Wind from S
Wind: S 5 mph , 7 km/h
Temperature: 36°F , 2°C
Wind Chill: 32°F , 0°C
Dew Point: 16°F , -9°C
Humidity: 44%
Barometer: 30.47 inHg , 1031.8 hPa
Clouds: Overcast
Visibility: 10 miles , 16 km
Cloud details: Mostly Cloudy 6500 ft
Overcast 7000 ft
2018/01/18 19:35 KRWV 181935Z AUTO 19004KT 10SM BKN065 OVC070 02/M09 A3047 RMK AO2 T00231085
KBMQ - Burnet, Texas, USA
Distance from station: WNW 50mi, 80km
Updated: Thu, 18-Jan-2018 12:53pm CST
Overcast
Overcast
 Wind from S
Wind: S 5 mph , 7 km/h
Temperature: 39°F , 4°C
Wind Chill: 35°F , 2°C
Dew Point: 12°F , -11°C
Humidity: 33%
Barometer: 30.43 inHg , 1030.5 hPa
Clouds: Overcast
Visibility: 10 miles , 16 km
Cloud details: Overcast 4600 ft
2018/01/18 18:53 KBMQ 181853Z AUTO 17004KT 10SM OVC046 04/M11 A3043 RMK AO2 SLP312 T00441111